Time;durP1;ratioP1;P1;durP2;ratioP2;P2;SDS_P1;SDS_P2;PMS_P1;PMS_P2;Temp;Humidity;BMP_temperature;BMP_pressure;BME280_temperature;BME280_humidity;BME280_pressure;Samples;Min_cycle;Max_cycle;Signal;HPM_P1;HPM_P2
2022/12/18 00:01:05;;;;;;;10.30;6.10;;;8.60;99.90;;;8.51;71.72;95709.75;5082662;28;20466;-55
2022/12/18 00:03:34;;;;;;;8.97;5.67;;;8.60;99.90;;;8.43;71.25;95717.28;5083994;28;20443;-58
2022/12/18 00:06:02;;;;;;;6.87;6.17;;;8.50;99.90;;;8.43;71.27;95727.75;5087333;28;20533;-55
2022/12/18 00:08:29;;;;;;;7.53;6.73;;;8.50;99.90;;;8.41;71.22;95721.78;5082285;28;20768;-60
2022/12/18 00:10:59;;;;;;;6.27;5.60;;;8.50;99.90;;;8.37;70.75;95728.19;5085816;28;20591;-53
2022/12/18 00:13:29;;;;;;;6.53;5.80;;;8.50;99.90;;;8.31;71.67;95721.56;5079624;28;20442;-56
2022/12/18 00:15:56;;;;;;;9.10;5.83;;;8.40;99.90;;;8.28;70.96;95728.81;5081678;28;20462;-57
2022/12/18 00:18:23;;;;;;;6.73;6.03;;;8.40;99.90;;;8.24;71.69;95734.25;5076939;28;20995;-55
2022/12/18 00:20:52;;;;;;;8.03;6.37;;;8.40;99.90;;;8.21;71.86;95737.09;5082300;28;20554;-58
2022/12/18 00:23:19;;;;;;;7.23;6.30;;;8.30;99.90;;;8.18;71.40;95736.44;5079916;28;20465;-55
2022/12/18 00:25:46;;;;;;;6.93;5.90;;;8.30;99.90;;;8.16;71.43;95746.19;5082911;28;20477;-56
2022/12/18 00:28:13;;;;;;;6.77;5.80;;;8.20;99.90;;;8.13;71.20;95746.41;5077888;28;20462;-58
2022/12/18 00:30:41;;;;;;;6.77;5.90;;;8.20;99.90;;;8.06;71.38;95741.56;5077539;28;20560;-58
2022/12/18 00:33:08;;;;;;;7.43;5.87;;;8.20;99.90;;;8.04;71.78;95751.31;5079109;28;20566;-58
2022/12/18 00:35:35;;;;;;;5.90;5.30;;;8.20;99.90;;;8.01;71.59;95758.53;5073938;28;20536;-55
2022/12/18 00:38:06;;;;;;;9.73;5.90;;;8.10;99.90;;;7.99;71.75;95765.66;5077515;28;20568;-57
2022/12/18 00:40:33;;;;;;;6.40;5.77;;;8.10;99.90;;;7.96;71.34;95750.16;5072221;28;21045;-55
2022/12/18 00:42:59;;;;;;;10.67;5.90;;;8.10;99.90;;;7.94;71.67;95752.88;5078389;28;20532;-57
2022/12/18 00:45:28;;;;;;;5.83;4.93;;;8.00;99.90;;;7.92;71.30;95760.00;5080901;28;20481;-55
2022/12/18 00:47:55;;;;;;;8.00;5.90;;;8.00;99.90;;;7.89;71.66;95758.41;5081304;28;20462;-57
2022/12/18 00:50:23;;;;;;;8.63;6.00;;;8.00;99.90;;;7.87;71.85;95762.09;5072497;28;20474;-57
2022/12/18 00:52:50;;;;;;;8.73;6.10;;;8.00;99.90;;;7.85;71.75;95764.81;5085023;28;20683;-57
2022/12/18 00:55:19;;;;;;;7.80;5.70;;;7.90;99.90;;;7.82;71.12;95767.63;5072434;28;20550;-56
2022/12/18 00:57:46;;;;;;;7.93;6.60;;;7.90;99.90;;;7.79;71.16;95767.84;5083991;28;20598;-54
2022/12/18 01:00:15;;;;;;;7.50;6.80;;;7.90;99.90;;;7.76;71.04;95775.91;5080662;28;20999;-55
2022/12/18 01:02:43;;;;;;;10.07;6.63;;;7.90;99.90;;;7.72;71.70;95775.22;5082235;28;20442;-57
2022/12/18 01:05:12;;;;;;;9.33;7.13;;;7.90;99.90;;;7.70;71.35;95776.28;5077984;28;20469;-58
2022/12/18 01:07:39;;;;;;;9.20;6.17;;;7.80;99.90;;;7.67;71.41;95777.31;5074659;28;20446;-57
2022/12/18 01:10:08;;;;;;;9.50;7.27;;;7.80;99.90;;;7.65;70.74;95778.34;5078081;28;20478;-52
2022/12/18 01:12:36;;;;;;;10.23;7.17;;;7.70;99.90;;;7.62;71.67;95776.78;5075005;28;21076;-55
2022/12/18 01:15:04;;;;;;;7.40;6.70;;;7.70;99.90;;;7.61;71.63;95785.56;5086782;28;20928;-53
2022/12/18 01:17:32;;;;;;;8.30;6.67;;;7.70;99.90;;;7.59;71.49;95792.69;5078349;28;20450;-55
2022/12/18 01:19:59;;;;;;;10.83;7.93;;;7.70;99.90;;;7.58;71.19;95792.78;5077466;28;20813;-56
2022/12/18 01:22:26;;;;;;;10.50;7.00;;;7.70;99.90;;;7.52;71.06;95784.38;5077963;28;20458;-57
2022/12/18 01:24:53;;;;;;;8.00;6.93;;;7.60;99.90;;;7.50;70.90;95791.50;5079667;28;20481;-57
2022/12/18 01:27:21;;;;;;;10.33;7.97;;;7.60;99.90;;;7.50;71.26;95795.91;5077116;28;20458;-57
2022/12/18 01:29:50;;;;;;;7.20;6.17;;;7.60;99.90;;;7.47;71.71;95799.53;5081520;28;20477;-58
2022/12/18 01:32:17;;;;;;;9.07;6.87;;;7.60;99.90;;;7.46;71.67;95795.25;5080560;28;21038;-56
2022/12/18 01:34:45;;;;;;;9.17;7.33;;;7.60;99.90;;;7.45;71.22;95804.03;5078437;28;20472;-58
2022/12/18 01:37:12;;;;;;;11.27;7.57;;;7.60;99.90;;;7.43;71.16;95800.66;5077576;28;20993;-58
2022/12/18 01:39:39;;;;;;;9.73;6.50;;;7.60;99.90;;;7.42;71.18;95806.84;5079841;28;20474;-56
2022/12/18 01:42:11;;;;;;;9.73;6.77;;;7.50;99.90;;;7.43;71.23;95810.31;5077720;28;20450;-53
2022/12/18 01:45:27;;;;;;;8.87;6.67;;;7.50;99.90;;;7.43;71.72;95821.59;5078652;28;21017;-56
2022/12/18 01:47:58;;;;;;;11.83;7.90;;;7.50;99.90;;;7.44;71.21;95818.06;5076646;28;20454;-58
2022/12/18 01:50:29;;;;;;;6.43;5.83;;;7.50;99.90;;;7.43;71.22;95808.53;5074656;28;21002;-54
2022/12/18 01:52:59;;;;;;;7.23;5.90;;;7.50;99.90;;;7.43;70.95;95816.38;5079461;28;20479;-55
2022/12/18 01:55:29;;;;;;;9.60;6.80;;;7.50;99.90;;;7.40;70.44;95816.56;5079681;28;20947;-58
2022/12/18 01:57:57;;;;;;;8.60;7.40;;;7.50;99.90;;;7.36;71.01;95809.88;5081570;28;20467;-57
2022/12/18 02:00:27;;;;;;;8.80;6.40;;;7.50;99.90;;;7.36;70.98;95820.34;5080625;28;20489;-55
2022/12/18 02:02:55;;;;;;;9.53;6.97;;;7.50;99.90;;;7.34;71.01;95827.41;5080524;28;20524;-59
2022/12/18 02:05:29;;;;;;;7.60;6.63;;;7.50;99.90;;;7.31;70.98;95822.38;5079207;28;20478;-57
2022/12/18 02:08:03;;;;;;;7.83;5.70;;;7.40;99.90;;;7.29;70.74;95819.84;5080184;28;20450;-57
2022/12/18 02:10:34;;;;;;;7.23;6.53;;;7.40;99.90;;;7.29;70.68;95819.03;5079342;28;20935;-51
2022/12/18 02:13:12;;;;;;;13.63;5.90;;;7.40;99.90;;;7.26;70.33;95827.06;5078704;28;21011;-57
2022/12/18 02:15:43;;;;;;;6.20;5.20;;;7.40;99.90;;;7.24;70.71;95831.56;5080760;28;20556;-54
2022/12/18 02:18:12;;;;;;;6.80;5.83;;;7.30;99.90;;;7.21;70.70;95829.13;5082404;28;20454;-55
2022/12/18 02:20:44;;;;;;;9.70;6.17;;;7.30;99.90;;;7.22;70.95;95836.91;5083202;28;20478;-57
2022/12/18 02:23:22;;;;;;;6.90;5.63;;;7.30;99.90;;;7.21;71.01;95839.59;5080234;28;20449;-54
2022/12/18 02:26:07;;;;;;;8.03;5.60;;;7.30;99.90;;;7.20;70.63;95835.31;5083060;28;20478;-55
2022/12/18 02:28:37;;;;;;;8.47;6.83;;;7.30;99.90;;;7.20;71.02;95840.53;5084525;28;20981;-57
2022/12/18 02:31:06;;;;;;;10.33;7.33;;;7.30;99.90;;;7.20;70.91;95841.34;5083636;28;20488;-55
2022/12/18 02:33:33;;;;;;;7.17;6.10;;;7.30;99.90;;;7.20;70.81;95845.75;5080241;28;20450;-53
2022/12/18 02:36:01;;;;;;;6.20;5.60;;;7.30;99.90;;;7.20;70.97;95856.22;5081713;28;20474;-57
2022/12/18 02:38:28;;;;;;;5.73;5.10;;;7.30;99.90;;;7.19;70.79;95858.00;5080996;28;20462;-58
2022/12/18 02:40:56;;;;;;;11.20;6.53;;;7.30;99.90;;;7.20;71.25;95861.47;5081888;28;20539;-59
2022/12/18 02:43:24;;;;;;;7.33;6.13;;;7.30;99.90;;;7.18;70.93;95851.09;5077132;28;20455;-57
2022/12/18 02:45:53;;;;;;;6.07;5.47;;;7.30;99.90;;;7.18;70.92;95856.31;5075308;28;20470;-57
2022/12/18 02:48:22;;;;;;;10.17;5.70;;;7.30;99.90;;;7.15;70.27;95859.97;5079345;28;20457;-56
2022/12/18 02:50:53;;;;;;;7.87;6.47;;;7.30;99.90;;;7.14;70.50;95860.06;5080150;28;20535;-56
2022/12/18 02:53:25;;;;;;;7.40;5.63;;;7.20;99.90;;;7.13;70.59;95864.44;5079870;28;20482;-59
2022/12/18 02:56:02;;;;;;;13.47;5.80;;;7.20;99.90;;;7.11;70.02;95865.47;5082618;28;20469;-57
2022/12/18 02:58:34;;;;;;;6.73;5.70;;;7.20;99.90;;;7.04;70.31;95867.63;5082060;28;20447;-62
2022/12/18 03:01:04;;;;;;;9.50;6.23;;;7.20;99.90;;;7.02;70.61;95864.28;5076683;28;20470;-56
2022/12/18 03:03:35;;;;;;;8.17;6.10;;;7.20;99.90;;;6.98;70.77;95874.06;5082727;28;20443;-58
2022/12/18 03:06:05;;;;;;;7.47;6.20;;;7.10;99.90;;;6.98;70.36;95865.38;5087169;28;20561;-57
2022/12/18 03:08:35;;;;;;;8.60;6.43;;;7.10;99.90;;;6.96;70.98;95864.66;5079085;28;20457;-56
2022/12/18 03:11:05;;;;;;;6.03;5.43;;;7.10;99.90;;;6.94;71.02;95861.28;5076863;28;20471;-58
2022/12/18 03:13:35;;;;;;;7.23;6.00;;;7.10;99.90;;;6.93;70.60;95870.06;5083971;28;20481;-56
2022/12/18 03:16:02;;;;;;;7.00;5.80;;;7.00;99.90;;;6.92;70.66;95871.00;5080006;28;20475;-54
2022/12/18 03:18:33;;;;;;;6.90;6.13;;;7.10;99.90;;;6.92;70.72;95868.38;5086631;28;20977;-58
2022/12/18 03:21:04;;;;;;;6.07;5.33;;;7.10;99.90;;;6.91;69.79;95871.91;5080705;28;20463;-54
2022/12/18 03:23:35;;;;;;;9.37;6.20;;;7.10;99.90;;;6.91;70.18;95877.16;5087126;28;20857;-59
2022/12/18 03:26:07;;;;;;;6.23;5.00;;;7.00;99.90;;;6.89;70.75;95881.63;5079515;28;21037;-57
2022/12/18 03:28:36;;;;;;;8.10;5.13;;;7.00;99.90;;;6.88;70.44;95883.41;5079318;28;21012;-54
2022/12/18 03:31:03;;;;;;;6.77;5.37;;;7.00;99.90;;;6.92;70.39;95886.69;5082208;28;20618;-57
2022/12/18 03:33:32;;;;;;;5.10;4.50;;;7.00;99.90;;;6.92;70.54;95903.22;5083180;28;20524;-59
2022/12/18 03:36:00;;;;;;;7.77;6.00;;;7.10;99.90;;;6.94;70.29;95903.13;5081063;28;21032;-53
2022/12/18 03:38:27;;;;;;;12.67;6.23;;;7.10;99.90;;;6.93;69.72;95904.06;5078977;28;20524;-54
2022/12/18 03:41:12;;;;;;;7.13;6.43;;;7.10;99.90;;;6.93;68.68;95902.28;5078871;28;20474;-56
2022/12/18 03:43:44;;;;;;;8.30;6.13;;;7.00;99.90;;;6.91;68.77;95908.53;5080205;28;20459;-57
2022/12/18 03:46:16;;;;;;;7.57;6.17;;;7.00;99.90;;;6.89;69.01;95913.03;5082721;28;20474;-57
2022/12/18 03:48:45;;;;;;;7.20;6.50;;;7.00;99.90;;;6.82;69.25;95918.59;5079793;28;20488;-57
2022/12/18 03:51:15;;;;;;;8.03;6.60;;;7.00;99.90;;;6.84;69.13;95923.75;5079866;28;20528;-57
2022/12/18 03:53:45;;;;;;;8.17;6.77;;;7.00;99.90;;;6.82;69.32;95934.31;5077249;28;20481;-54
2022/12/18 03:56:14;;;;;;;16.73;7.53;;;6.90;99.90;;;6.80;68.59;95923.09;5077767;28;20489;-57
2022/12/18 03:58:42;;;;;;;9.20;6.50;;;6.90;99.90;;;6.78;68.83;95924.94;5080197;28;20466;-56
2022/12/18 04:01:09;;;;;;;14.03;6.10;;;6.90;99.90;;;6.75;68.69;95925.13;5079694;28;20482;-54
2022/12/18 04:03:37;;;;;;;9.40;7.40;;;6.90;99.90;;;6.74;69.17;95926.06;5077777;28;20471;-57
2022/12/18 04:06:04;;;;;;;11.07;7.73;;;6.90;99.90;;;6.73;68.53;95932.22;5081236;28;20584;-57
2022/12/18 04:08:31;;;;;;;10.10;7.53;;;6.90;99.90;;;6.73;69.30;95928.78;5077440;28;20462;-57
2022/12/18 04:10:59;;;;;;;11.27;8.67;;;6.90;99.90;;;6.69;68.60;95927.25;5082152;28;20477;-57
2022/12/18 04:13:30;;;;;;;10.87;8.73;;;6.80;99.90;;;6.67;68.75;95927.34;5079809;28;20493;-53
2022/12/18 04:15:57;;;;;;;10.87;6.90;;;6.80;99.90;;;6.66;69.14;95930.88;5079819;28;20486;-56
2022/12/18 04:18:24;;;;;;;11.20;7.90;;;6.80;99.90;;;6.65;68.41;95934.47;5080402;28;20461;-57
2022/12/18 04:20:51;;;;;;;11.17;8.50;;;6.80;99.90;;;6.63;68.59;95941.53;5076725;28;20570;-56
2022/12/18 04:23:19;;;;;;;13.40;8.87;;;6.80;99.90;;;6.63;68.79;95951.97;5081850;28;20465;-57
2022/12/18 04:25:46;;;;;;;13.60;9.27;;;6.70;99.90;;;6.59;68.61;95953.94;5075637;28;20481;-54
2022/12/18 04:28:13;;;;;;;12.63;9.03;;;6.70;99.90;;;6.59;68.28;95960.94;5073375;28;20893;-58
2022/12/18 04:30:42;;;;;;;17.30;10.00;;;6.70;99.90;;;6.55;67.91;95975.13;5078533;28;20823;-56
2022/12/18 04:33:10;;;;;;;16.30;9.87;;;6.70;99.90;;;6.54;68.12;95973.44;5081814;28;20496;-57
2022/12/18 04:35:37;;;;;;;13.27;9.23;;;6.70;99.90;;;6.55;68.15;95982.97;5081910;28;20886;-58
2022/12/18 04:38:05;;;;;;;13.80;9.67;;;6.70;99.90;;;6.55;67.24;95970.75;5080488;28;20462;-56
2022/12/18 04:40:32;;;;;;;15.40;9.47;;;6.70;99.90;;;6.55;68.17;95981.22;5084343;28;20553;-58
2022/12/18 04:42:59;;;;;;;19.90;10.37;;;6.70;99.90;;;6.55;67.72;95980.34;5082065;28;20454;-57
2022/12/18 04:45:26;;;;;;;13.10;8.80;;;6.70;99.90;;;6.54;67.86;95992.59;5078779;28;20482;-57
2022/12/18 04:47:55;;;;;;;14.10;9.80;;;6.70;99.90;;;6.53;67.24;95988.28;5083331;28;20469;-58
2022/12/18 04:50:22;;;;;;;14.70;9.43;;;6.70;99.90;;;6.50;67.49;95987.63;5073687;28;20470;-56
2022/12/18 04:52:49;;;;;;;15.57;9.73;;;6.60;99.90;;;6.50;67.38;95992.84;5075885;28;20493;-57
2022/12/18 04:55:17;;;;;;;14.27;10.20;;;6.60;99.90;;;6.48;67.31;95990.31;5078512;28;20466;-56
2022/12/18 04:57:44;;;;;;;17.90;11.60;;;6.60;99.90;;;6.48;67.34;95999.94;5081336;28;20477;-53
2022/12/18 05:00:13;;;;;;;15.97;10.07;;;6.60;99.90;;;6.46;67.48;95997.41;5077203;28;20469;-57
2022/12/18 05:02:40;;;;;;;16.10;10.40;;;6.60;99.90;;;6.44;67.36;95994.88;5081762;28;20446;-57
2022/12/18 05:05:09;;;;;;;20.10;12.10;;;6.60;99.90;;;6.42;67.42;96007.16;5078855;28;20981;-57
2022/12/18 05:07:37;;;;;;;16.90;11.00;;;6.60;99.90;;;6.40;67.61;96013.44;5076879;28;20450;-55
2022/12/18 05:10:05;;;;;;;15.97;10.47;;;6.60;99.90;;;6.39;67.89;96012.56;5080083;28;20885;-56
2022/12/18 05:12:32;;;;;;;15.87;10.00;;;6.50;99.90;;;6.39;67.83;96020.41;5077500;28;20490;-56
2022/12/18 05:15:00;;;;;;;20.80;10.47;;;6.60;99.90;;;6.39;67.77;96023.03;5080971;28;20481;-57
2022/12/18 05:17:27;;;;;;;20.13;11.13;;;6.50;99.90;;;6.39;67.30;96033.47;5081418;28;20988;-58
2022/12/18 05:19:54;;;;;;;14.63;10.10;;;6.60;99.90;;;6.38;67.31;96026.59;5080834;28;20474;-56
2022/12/18 05:22:23;;;;;;;15.77;10.37;;;6.50;99.90;;;6.38;66.93;96039.66;5077927;28;20458;-57
2022/12/18 05:24:50;;;;;;;14.30;9.97;;;6.60;99.90;;;6.36;67.43;96044.09;5077516;28;20534;-57
2022/12/18 05:27:19;;;;;;;26.20;11.60;;;6.50;99.90;;;6.34;66.40;96050.34;5073839;28;20458;-57
2022/12/18 05:29:46;;;;;;;17.13;11.17;;;6.50;99.90;;;6.32;66.84;96042.59;5079215;28;20489;-57
2022/12/18 05:32:13;;;;;;;21.80;11.43;;;6.50;99.90;;;6.31;65.87;96050.53;5077681;28;20520;-57
2022/12/18 05:34:40;;;;;;;15.17;10.60;;;6.50;99.90;;;6.27;67.00;96058.53;5083270;28;20504;-57
2022/12/18 05:37:08;;;;;;;18.43;11.40;;;6.40;99.90;;;6.26;65.66;96061.22;5078718;28;20466;-57
2022/12/18 05:39:37;;;;;;;18.30;11.73;;;6.40;99.90;;;6.23;66.85;96061.41;5076375;28;20469;-56
2022/12/18 05:42:04;;;;;;;21.50;11.53;;;6.40;99.90;;;6.22;66.02;96059.69;5080247;28;20484;-57
2022/12/18 05:44:31;;;;;;;16.90;11.93;;;6.40;99.90;;;6.21;66.25;96063.22;5073826;28;20482;-57
2022/12/18 05:46:58;;;;;;;24.00;11.23;;;6.40;99.90;;;6.20;66.65;96061.56;5079105;28;20480;-58
2022/12/18 05:49:26;;;;;;;21.63;12.67;;;6.40;99.90;;;6.19;66.79;96068.53;5080755;28;20477;-53
2022/12/18 05:51:53;;;;;;;21.47;13.13;;;6.40;99.90;;;6.18;66.21;96064.25;5079597;28;20519;-56
2022/12/18 05:54:21;;;;;;;19.00;12.20;;;6.30;99.90;;;6.18;66.53;96071.22;5080169;28;20498;-53
2022/12/18 05:56:49;;;;;;;17.70;12.17;;;6.30;99.90;;;6.18;66.62;96076.47;5080035;28;20461;-55
2022/12/18 05:59:16;;;;;;;19.23;12.10;;;6.30;99.90;;;6.17;66.26;96075.63;5082322;28;20481;-56
2022/12/18 06:01:44;;;;;;;19.97;12.60;;;6.30;99.90;;;6.17;65.60;96083.47;5075873;28;20515;-56
2022/12/18 06:04:11;;;;;;;18.20;10.77;;;6.30;99.90;;;6.17;66.04;96098.31;5074760;28;20465;-55
2022/12/18 06:06:38;;;;;;;20.53;11.47;;;6.30;99.90;;;6.17;66.60;96103.53;5078822;28;20453;-56
2022/12/18 06:09:08;;;;;;;20.33;11.47;;;6.40;99.90;;;6.19;65.87;96101.66;5080988;28;20458;-55
2022/12/18 06:11:35;;;;;;;19.27;12.50;;;6.40;99.90;;;6.20;65.92;96109.41;5070475;28;20461;-56
2022/12/18 06:14:04;;;;;;;15.97;10.30;;;6.30;99.90;;;6.20;66.34;96105.97;5075762;28;20725;-55
2022/12/18 06:16:32;;;;;;;22.13;12.90;;;6.30;99.90;;;6.20;66.02;96104.19;5079727;28;20894;-58
2022/12/18 06:18:59;;;;;;;20.40;11.20;;;6.30;99.90;;;6.23;66.36;96103.19;5077216;28;20450;-59
2022/12/18 06:21:27;;;;;;;20.27;12.20;;;6.40;99.90;;;6.22;65.90;96104.09;5078036;28;20453;-58
2022/12/18 06:23:54;;;;;;;15.30;10.30;;;6.40;99.90;;;6.21;66.04;96107.63;5075843;28;20986;-57
2022/12/18 06:26:21;;;;;;;17.57;11.70;;;6.40;99.90;;;6.19;65.74;96107.72;5073690;28;20983;-57
2022/12/18 06:28:48;;;;;;;17.73;11.80;;;6.30;99.90;;;6.18;66.53;96103.44;5076507;28;20459;-59
2022/12/18 06:31:17;;;;;;;15.43;11.40;;;6.30;99.90;;;6.17;65.37;96106.97;5074393;28;20470;-56
2022/12/18 06:33:44;;;;;;;18.83;12.00;;;6.30;99.90;;;6.17;65.74;96114.81;5077925;28;20486;-55
2022/12/18 06:36:13;;;;;;;19.00;10.90;;;6.30;99.90;;;6.18;65.89;96111.28;5074042;28;20582;-58
2022/12/18 06:38:42;;;;;;;14.97;10.50;;;6.30;99.90;;;6.18;65.97;96123.47;5076664;28;20454;-55
2022/12/18 06:41:09;;;;;;;19.90;11.20;;;6.30;99.90;;;6.17;65.84;96120.03;5081840;28;20478;-56
2022/12/18 06:43:37;;;;;;;16.50;10.20;;;6.30;99.90;;;6.17;65.57;96119.19;5077277;28;20896;-58
2022/12/18 06:46:04;;;;;;;20.00;11.57;;;6.30;99.90;;;6.15;65.44;96132.34;5075245;28;20553;-57
2022/12/18 06:48:33;;;;;;;13.40;9.27;;;6.30;99.90;;;6.15;64.57;96128.88;5080938;28;20453;-53
2022/12/18 06:51:00;;;;;;;16.30;10.60;;;6.30;99.90;;;6.13;65.16;96135.94;5079272;28;20474;-55
2022/12/18 06:53:28;;;;;;;14.30;10.10;;;6.30;99.90;;;6.12;64.64;96136.88;5074841;28;20493;-57
2022/12/18 06:56:01;;;;;;;16.87;10.80;;;6.30;99.90;;;6.11;64.88;96143.88;5078511;28;20870;-58
2022/12/18 06:58:29;;;;;;;17.30;11.57;;;6.30;99.90;;;6.08;64.68;96136.19;5073899;28;20461;-58
2022/12/18 07:01:01;;;;;;;17.70;11.10;;;6.30;99.90;;;6.06;65.41;96146.72;5076006;28;21080;-58
2022/12/18 07:03:28;;;;;;;23.30;13.77;;;6.30;99.90;;;6.09;64.53;96151.78;5082714;28;20451;-59
2022/12/18 07:05:57;;;;;;;20.53;12.50;;;6.20;99.90;;;6.07;64.45;96148.41;5083119;28;21009;-55
2022/12/18 07:08:24;;;;;;;19.83;12.30;;;6.20;99.90;;;6.09;65.04;96148.34;5077903;28;20465;-58
2022/12/18 07:10:52;;;;;;;20.53;13.13;;;6.20;99.90;;;6.09;64.82;96159.63;5079851;28;20565;-58
2022/12/18 07:13:20;;;;;;;23.67;13.63;;;6.20;99.90;;;6.09;64.49;96161.41;5081442;28;20494;-58
2022/12/18 07:15:47;;;;;;;21.47;13.17;;;6.30;99.90;;;6.09;64.80;96166.63;5082581;28;20473;-56
2022/12/18 07:18:14;;;;;;;21.90;13.03;;;6.20;99.90;;;6.08;65.36;96170.97;5079406;28;20461;-54
2022/12/18 07:20:41;;;;;;;24.37;14.70;;;6.20;99.90;;;6.08;64.64;96172.75;5079236;28;20492;-57
2022/12/18 07:23:10;;;;;;;25.50;13.30;;;6.20;99.90;;;6.07;65.25;96171.06;5080930;28;20477;-58
2022/12/18 07:25:37;;;;;;;21.93;13.80;;;6.20;99.90;;;6.08;65.06;96165.75;5083444;28;20959;-56
2022/12/18 07:28:05;;;;;;;23.93;14.83;;;6.20;99.90;;;6.07;65.28;96169.31;5082147;28;20805;-58
2022/12/18 07:30:32;;;;;;;19.60;12.60;;;6.20;99.90;;;6.08;65.01;96173.59;5073062;28;20478;-55
2022/12/18 07:32:59;;;;;;;26.57;14.30;;;6.30;99.90;;;6.08;65.00;96181.44;5082298;28;20486;-59
2022/12/18 07:35:26;;;;;;;22.60;13.20;;;6.30;99.90;;;6.09;65.04;96175.28;5078620;28;20474;-57
2022/12/18 07:37:53;;;;;;;31.67;14.67;;;6.30;99.90;;;6.09;65.69;96179.69;5082559;28;20454;-56
2022/12/18 07:40:22;;;;;;;21.63;13.30;;;6.30;99.90;;;6.08;65.31;96181.44;5079620;28;20457;-59
2022/12/18 07:42:49;;;;;;;22.47;13.00;;;6.20;99.90;;;6.08;65.49;96186.66;5079800;28;20455;-56
2022/12/18 07:45:17;;;;;;;30.40;14.50;;;6.20;99.90;;;6.07;65.57;96181.50;5078289;28;20498;-56
2022/12/18 07:47:44;;;;;;;23.83;14.10;;;6.20;99.90;;;6.07;65.29;96190.19;5079853;28;20454;-58
2022/12/18 07:50:12;;;;;;;27.10;14.67;;;6.20;99.90;;;6.08;65.77;96184.03;5079421;28;20478;-55
2022/12/18 07:52:40;;;;;;;20.27;12.87;;;6.30;99.90;;;6.07;65.59;96192.81;5078714;28;20490;-57
2022/12/18 07:55:08;;;;;;;18.97;13.63;;;6.20;99.90;;;6.07;65.25;96189.34;5076805;28;20482;-55
2022/12/18 07:57:37;;;;;;;26.23;14.50;;;6.20;99.90;;;6.06;65.57;96196.34;5083191;28;20461;-55
2022/12/18 08:00:06;;;;;;;21.77;12.80;;;6.20;99.90;;;6.10;66.00;96202.25;5077655;28;20547;-58
2022/12/18 08:02:33;;;;;;;23.20;13.93;;;6.20;99.90;;;6.08;65.53;96199.72;5077808;28;20451;-58
2022/12/18 08:05:00;;;;;;;36.83;13.27;;;6.30;99.90;;;6.10;65.32;96203.09;5080116;28;20481;-54
2022/12/18 08:07:27;;;;;;;19.40;13.00;;;6.30;99.90;;;6.13;65.54;96214.31;5080478;28;20532;-56
2022/12/18 08:09:54;;;;;;;22.13;13.47;;;6.30;99.90;;;6.12;65.40;96210.88;5080913;28;21021;-58
2022/12/18 08:12:22;;;;;;;22.20;12.47;;;6.30;99.90;;;6.12;64.92;96223.06;5079105;28;21186;-57
2022/12/18 08:14:51;;;;;;;21.80;13.23;;;6.30;99.90;;;6.10;65.65;96216.16;5078701;28;20570;-57
2022/12/18 08:17:18;;;;;;;24.40;14.40;;;6.30;99.90;;;6.12;65.34;96229.16;5080554;28;20457;-58
2022/12/18 08:19:45;;;;;;;21.87;13.80;;;6.30;99.90;;;6.14;65.56;96216.00;5075075;28;20808;-55
2022/12/18 08:22:12;;;;;;;17.97;11.63;;;6.30;99.90;;;6.16;65.42;96225.44;5080584;28;21001;-59
2022/12/18 08:24:39;;;;;;;19.87;12.43;;;6.30;99.90;;;6.19;65.04;96234.88;5078565;28;20481;-57
2022/12/18 08:27:12;;;;;;;22.00;13.87;;;6.30;99.90;;;6.18;65.00;96233.19;5080415;28;20457;-58
2022/12/18 08:29:39;;;;;;;24.23;13.60;;;6.30;99.90;;;6.16;64.72;96241.09;5078801;28;20556;-57
2022/12/18 08:32:08;;;;;;;22.40;13.23;;;6.30;99.90;;;6.16;64.83;96238.50;5078066;28;20458;-55
2022/12/18 08:34:35;;;;;;;19.03;12.93;;;6.30;99.90;;;6.18;64.51;96241.03;5073194;28;20486;-55
2022/12/18 08:37:02;;;;;;;26.67;14.23;;;6.30;99.90;;;6.18;64.62;96241.91;5077157;28;20443;-57
2022/12/18 08:39:29;;;;;;;17.77;11.50;;;6.30;99.90;;;6.20;64.10;96236.59;5072477;28;20993;-57
2022/12/18 08:44:41;;;;;;;21.47;12.23;;;6.30;99.90;;;6.23;64.13;96246.88;5076805;28;21025;-56
2022/12/18 08:47:10;;;;;;;17.53;10.50;;;6.40;99.90;;;6.27;64.26;96244.03;5082828;28;20457;-56
2022/12/18 08:49:37;;;;;;;16.80;10.60;;;6.40;99.90;;;6.31;63.97;96249.94;5073028;28;20489;-56
2022/12/18 08:52:05;;;;;;;19.53;11.50;;;6.40;99.90;;;6.33;63.47;96248.06;5081811;28;20532;-57
2022/12/18 08:54:32;;;;;;;17.73;11.13;;;6.40;99.90;;;6.35;64.42;96251.47;5078601;28;20501;-55
2022/12/18 08:56:59;;;;;;;19.80;11.57;;;6.50;99.90;;;6.36;63.97;96241.84;5065651;28;20450;-56
2022/12/18 08:59:27;;;;;;;20.80;12.13;;;6.50;99.90;;;6.35;63.76;96240.16;5073385;28;20536;-56
2022/12/18 09:01:55;;;;;;;24.63;12.37;;;6.50;99.90;;;6.42;64.41;96252.81;5076375;28;20478;-57
2022/12/18 09:04:23;;;;;;;21.27;12.13;;;6.50;99.90;;;6.46;63.87;96251.75;5071330;28;21099;-56
2022/12/18 09:06:50;;;;;;;20.30;12.33;;;6.60;99.90;;;6.51;63.30;96246.28;5075602;28;20458;-55
2022/12/18 09:09:18;;;;;;;15.83;11.13;;;6.70;99.90;;;6.55;63.53;96252.19;5074074;28;20455;-55
2022/12/18 09:11:45;;;;;;;29.90;10.93;;;6.60;99.90;;;6.60;62.59;96242.31;5070280;28;20455;-55
2022/12/18 09:14:12;;;;;;;24.97;10.90;;;6.70;99.40;;;6.65;63.17;96242.94;5078379;28;20497;-57
2022/12/18 09:16:40;;;;;;;21.27;12.00;;;6.70;99.90;;;6.72;64.04;96249.50;5074699;28;20908;-57
2022/12/18 09:19:07;;;;;;;26.60;14.37;;;6.80;99.90;;;6.77;63.65;96247.50;5077044;28;20952;-55
2022/12/18 09:21:38;;;;;;;15.73;9.77;;;6.90;99.90;;;6.82;62.95;96250.72;5075140;28;20463;-57
2022/12/18 09:24:06;;;;;;;16.57;11.10;;;6.90;99.30;;;6.82;62.03;96245.47;5077264;28;20461;-56
2022/12/18 09:26:34;;;;;;;18.23;10.70;;;6.90;98.90;;;6.82;62.01;96244.66;5072336;28;20549;-57
2022/12/18 09:29:01;;;;;;;19.40;11.60;;;6.90;98.70;;;6.82;61.43;96248.09;5080346;28;20518;-56
2022/12/18 09:31:28;;;;;;;22.13;12.30;;;6.90;98.50;;;6.80;61.52;96247.34;5072668;28;20781;-58
2022/12/18 09:33:57;;;;;;;19.83;10.60;;;6.90;98.50;;;6.79;62.15;96243.03;5076686;28;20961;-56
2022/12/18 09:36:24;;;;;;;24.30;12.00;;;6.90;98.70;;;6.80;62.07;96246.47;5074352;28;20477;-58
2022/12/18 09:38:54;;;;;;;19.87;12.20;;;6.90;98.90;;;6.82;61.59;96252.50;5079082;28;20458;-58
2022/12/18 09:41:44;;;;;;;18.77;10.97;;;6.90;98.70;;;6.82;61.57;96245.47;5080244;28;20568;-61
2022/12/18 09:44:17;;;;;;;19.27;12.70;;;6.90;98.80;;;6.87;61.88;96244.41;5076459;28;20967;-55
2022/12/18 09:46:47;;;;;;;19.57;11.53;;;7.00;98.60;;;6.87;61.57;96253.06;5076032;28;20450;-56
2022/12/18 09:49:18;;;;;;;15.83;9.70;;;7.00;98.40;;;6.89;61.27;96247.75;5076905;28;20484;-57
2022/12/18 09:51:48;;;;;;;19.10;10.70;;;7.00;97.90;;;6.91;60.98;96251.13;5080765;28;20453;-58
2022/12/18 09:54:21;;;;;;;26.73;14.07;;;7.00;97.80;;;6.92;61.31;96239.75;5070320;28;20485;-56
2022/12/18 09:56:49;;;;;;;18.27;11.17;;;7.00;97.90;;;6.91;60.46;96251.13;5071593;28;20446;-56
2022/12/18 09:59:23;;;;;;;16.57;10.63;;;7.00;97.60;;;6.90;59.17;96257.31;5076089;28;20481;-58
2022/12/18 10:01:51;;;;;;;16.10;10.27;;;7.00;96.70;;;6.89;59.41;96247.75;5076385;28;20457;-58
2022/12/18 10:04:18;;;;;;;22.47;11.10;;;7.00;96.90;;;6.89;60.23;96232.91;5076185;28;21036;-55
2022/12/18 10:06:50;;;;;;;17.37;10.80;;;7.00;96.80;;;6.91;59.79;96235.44;5078755;28;20461;-56
2022/12/18 10:09:27;;;;;;;17.17;10.83;;;7.00;97.00;;;6.93;60.68;96233.59;5078383;28;20486;-56
2022/12/18 10:11:59;;;;;;;18.43;11.93;;;7.00;97.40;;;6.96;60.87;96239.50;5073844;28;20445;-60
2022/12/18 10:14:31;;;;;;;17.80;10.27;;;7.10;97.30;;;6.99;60.47;96241.13;5075806;28;20489;-58
2022/12/18 10:17:02;;;;;;;25.03;12.50;;;7.10;97.50;;;7.03;60.25;96232.16;5074645;28;21022;-59
2022/12/18 10:19:42;;;;;;;16.73;11.57;;;7.20;97.30;;;7.07;59.78;96238.91;5073297;28;20566;-58
2022/12/18 10:22:20;;;;;;;19.40;11.23;;;7.20;96.90;;;7.09;59.20;96239.66;5074147;28;20461;-57
2022/12/18 10:24:54;;;;;;;17.53;11.00;;;7.20;96.60;;;7.13;60.05;96241.19;5076719;28;20477;-57
2022/12/18 10:27:24;;;;;;;18.80;11.40;;;7.20;97.30;;;7.17;59.51;96241.84;5078110;28;20441;-58
2022/12/18 10:29:51;;;;;;;13.77;10.83;;;7.30;96.80;;;7.23;60.48;96243.31;5077295;28;20573;-58
2022/12/18 10:32:21;;;;;;;23.83;13.07;;;7.30;97.00;;;7.27;59.49;96237.81;5070336;28;20447;-57
2022/12/18 10:34:49;;;;;;;22.23;11.60;;;7.40;96.50;;;7.30;59.60;96236.81;5077835;28;20485;-58